createdAt,value
2022-09-24T00:02:18.266Z,76.03
2022-09-24T00:04:47.008Z,76.89
2022-09-24T00:07:15.091Z,76.26
2022-09-24T00:09:43.263Z,76.24
2022-09-24T00:12:13.196Z,76.21
2022-09-24T00:14:41.589Z,76.12
2022-09-24T00:17:09.649Z,75.83
2022-09-24T00:19:37.994Z,76.27
2022-09-24T00:22:06.140Z,76.43
2022-09-24T00:24:52.936Z,76.41
2022-09-24T00:27:21.007Z,76.94
2022-09-24T00:29:49.483Z,76.86
2022-09-24T00:32:17.635Z,76.62
2022-09-24T00:34:46.036Z,77.21
2022-09-24T00:37:14.068Z,77.41
2022-09-24T00:39:42.106Z,77.07
2022-09-24T00:42:10.348Z,76.93
2022-09-24T00:44:41.462Z,76.62
2022-09-24T00:47:32.504Z,76.95
2022-09-24T00:50:20.323Z,77.90
2022-09-24T00:53:16.449Z,77.89
2022-09-24T00:55:50.324Z,77.69
2022-09-24T00:58:18.756Z,77.60
2022-09-24T01:00:47.579Z,78.15
2022-09-24T01:03:20.984Z,78.34
2022-09-24T01:05:50.020Z,78.46
2022-09-24T01:08:20.576Z,77.97
2022-09-24T01:11:17.905Z,77.96
2022-09-24T01:14:03.389Z,78.04
2022-09-24T01:17:27.723Z,78.17
2022-09-24T01:20:28.595Z,78.45
2022-09-24T01:23:11.599Z,78.76
2022-09-24T01:25:44.410Z,78.25
2022-09-24T01:28:48.224Z,79.15
2022-09-24T01:31:31.294Z,78.97
2022-09-24T01:34:02.521Z,78.97
2022-09-24T01:36:33.746Z,79.15
2022-09-24T01:39:05.299Z,79.62
2022-09-24T01:41:34.290Z,79.75
2022-09-24T01:44:07.805Z,79.44
2022-09-24T01:46:41.298Z,79.59
2022-09-24T01:49:09.463Z,79.49
2022-09-24T01:51:49.640Z,79.78
2022-09-24T01:54:35.704Z,79.85
2022-09-24T01:57:36.283Z,79.82
2022-09-24T02:00:10.505Z,79.26
2022-09-24T02:03:00.971Z,79.30
2022-09-24T02:05:40.995Z,79.14
2022-09-24T02:08:20.082Z,79.17
2022-09-24T02:10:52.360Z,78.81
2022-09-24T02:13:25.188Z,78.71
2022-09-24T02:15:57.712Z,78.09
2022-09-24T02:18:34.841Z,77.81
2022-09-24T02:21:13.295Z,78.25
2022-09-24T02:24:03.274Z,78.69
2022-09-24T02:26:31.469Z,78.58
2022-09-24T02:28:59.988Z,78.14
2022-09-24T02:31:37.867Z,77.85
2022-09-24T02:34:20.716Z,79.00
2022-09-24T02:37:00.241Z,78.34
2022-09-24T02:39:28.482Z,78.61
2022-09-24T02:41:58.400Z,78.65
2022-09-24T02:44:27.108Z,77.95
2022-09-24T02:46:55.706Z,79.22
2022-09-24T02:49:23.787Z,78.80
2022-09-24T02:51:51.992Z,78.37
2022-09-24T02:54:20.145Z,78.44
2022-09-24T02:56:48.712Z,78.40
2022-09-24T02:59:17.295Z,78.08
2022-09-24T03:01:46.434Z,78.10
2022-09-24T03:04:14.760Z,78.39
2022-09-24T03:06:43.502Z,78.05
2022-09-24T03:09:13.111Z,78.45
2022-09-24T03:11:41.219Z,78.43
2022-09-24T03:14:09.502Z,77.81
2022-09-24T03:16:37.705Z,77.63
2022-09-24T03:19:07.449Z,77.87
2022-09-24T03:21:35.511Z,78.15
2022-09-24T03:24:04.242Z,78.00
2022-09-24T03:26:33.100Z,78.25
2022-09-24T03:29:01.207Z,78.13
2022-09-24T03:31:29.321Z,78.21
2022-09-24T03:33:57.491Z,78.34
2022-09-24T03:36:26.707Z,79.41
2022-09-24T03:38:56.989Z,79.25
2022-09-24T03:41:27.714Z,78.78
2022-09-24T03:43:56.303Z,78.52
2022-09-24T03:46:30.063Z,78.62
2022-09-24T03:49:00.153Z,79.15
2022-09-24T03:51:28.381Z,79.62
2022-09-24T03:53:56.463Z,79.69
2022-09-24T03:56:24.525Z,79.90
2022-09-24T03:58:52.631Z,79.92
2022-09-24T04:01:21.613Z,80.07
2022-09-24T04:03:50.758Z,80.04
2022-09-24T04:06:24.834Z,80.01
2022-09-24T04:08:53.947Z,80.19
2022-09-24T04:11:24.054Z,80.36
2022-09-24T04:13:52.908Z,80.79
2022-09-24T04:16:21.345Z,80.69
2022-09-24T04:18:49.584Z,80.68
2022-09-24T04:21:18.523Z,80.46
2022-09-24T04:23:47.173Z,80.25
2022-09-24T04:26:15.200Z,80.30
2022-09-24T04:28:43.367Z,80.76
2022-09-24T04:31:11.735Z,80.65
2022-09-24T04:33:40.766Z,80.93
2022-09-24T04:36:09.011Z,81.17
2022-09-24T04:38:37.156Z,81.21
2022-09-24T04:41:09.915Z,81.26
2022-09-24T04:43:38.834Z,82.47
2022-09-24T04:46:09.321Z,83.02
2022-09-24T04:48:38.217Z,82.84
2022-09-24T04:51:08.499Z,82.20
2022-09-24T04:53:37.521Z,82.16
2022-09-24T04:56:11.916Z,82.17
2022-09-24T04:58:40.454Z,83.02
2022-09-24T05:01:09.520Z,82.77
2022-09-24T05:03:37.618Z,82.53
2022-09-24T05:06:05.867Z,82.09
2022-09-24T05:08:33.928Z,81.89
2022-09-24T05:11:02.570Z,81.61
2022-09-24T05:13:30.760Z,82.24
2022-09-24T05:16:01.168Z,82.12
2022-09-24T05:18:29.660Z,82.56
2022-09-24T05:20:58.230Z,82.08
2022-09-24T05:23:26.320Z,81.91
2022-09-24T05:26:13.299Z,81.91
2022-09-24T05:28:42.805Z,81.67
2022-09-24T05:31:11.015Z,81.58
2022-09-24T05:33:39.461Z,82.47
2022-09-24T05:36:07.600Z,82.60
2022-09-24T05:38:36.556Z,82.22
2022-09-24T05:41:07.028Z,82.09
2022-09-24T05:43:35.077Z,81.75
2022-09-24T05:46:03.383Z,81.24
2022-09-24T05:48:31.521Z,81.52
2022-09-24T05:51:03.800Z,81.96
2022-09-24T05:53:32.116Z,81.80
2022-09-24T05:56:00.459Z,81.93
2022-09-24T05:58:29.554Z,81.44
2022-09-24T06:01:01.150Z,80.96
2022-09-24T06:03:29.820Z,80.91
2022-09-24T06:06:02.389Z,81.13
2022-09-24T06:08:33.280Z,81.39
2022-09-24T06:11:05.295Z,81.11
2022-09-24T06:13:36.504Z,80.53
2022-09-24T06:16:08.932Z,80.19
2022-09-24T06:18:40.486Z,79.79
2022-09-24T06:21:12.784Z,79.71
2022-09-24T06:23:42.088Z,79.33
2022-09-24T06:26:13.549Z,79.07
2022-09-24T06:28:42.261Z,78.93
2022-09-24T06:31:12.039Z,79.34
2022-09-24T06:33:40.981Z,79.49
2022-09-24T06:36:10.167Z,79.42
2022-09-24T06:38:40.397Z,79.55
2022-09-24T06:41:09.605Z,79.31
2022-09-24T06:43:37.939Z,79.08
2022-09-24T06:46:06.349Z,78.69
2022-09-24T06:48:34.866Z,78.20
2022-09-24T06:51:05.340Z,77.82
2022-09-24T06:53:33.827Z,77.37
2022-09-24T06:56:03.685Z,76.65
2022-09-24T06:58:32.167Z,76.13
2022-09-24T07:01:02.799Z,76.12
2022-09-24T07:03:33.807Z,76.06
2022-09-24T07:06:06.579Z,75.87
2022-09-24T07:08:35.044Z,75.40
2022-09-24T07:11:03.228Z,75.07
2022-09-24T07:13:31.487Z,75.02
2022-09-24T07:16:01.478Z,74.73
2022-09-24T07:18:29.765Z,74.09
2022-09-24T07:20:58.381Z,73.09
2022-09-24T07:23:28.028Z,72.34
2022-09-24T07:25:57.312Z,72.12
2022-09-24T07:28:26.076Z,71.15
2022-09-24T07:30:59.982Z,71.57
2022-09-24T07:33:28.421Z,70.92
2022-09-24T07:35:56.587Z,69.64
2022-09-24T07:38:25.450Z,69.60
2022-09-24T07:40:58.952Z,70.50
2022-09-24T07:43:28.083Z,71.27
2022-09-24T07:45:56.828Z,70.41
2022-09-24T07:48:25.013Z,69.12
2022-09-24T07:50:53.167Z,67.89
2022-09-24T07:53:21.961Z,67.56
2022-09-24T07:55:50.142Z,66.93
2022-09-24T07:58:18.568Z,66.09
2022-09-24T08:00:46.902Z,65.84
2022-09-24T08:03:15.288Z,65.80
2022-09-24T08:05:45.415Z,66.59
2022-09-24T08:08:15.205Z,66.18
2022-09-24T08:10:43.637Z,66.91
2022-09-24T08:13:12.225Z,65.68
2022-09-24T08:15:40.883Z,65.37
2022-09-24T08:18:10.296Z,64.37
2022-09-24T08:20:39.049Z,63.88
2022-09-24T08:23:12.663Z,63.91
2022-09-24T08:25:40.861Z,64.05
2022-09-24T08:28:12.262Z,64.55
2022-09-24T08:30:40.437Z,64.54
2022-09-24T08:33:10.319Z,64.16
2022-09-24T08:35:41.620Z,63.30
2022-09-24T08:38:10.283Z,63.64
2022-09-24T08:40:47.144Z,63.40
2022-09-24T08:43:46.240Z,63.17
2022-09-24T08:46:41.200Z,64.14
2022-09-24T08:49:18.115Z,63.00
2022-09-24T08:52:15.255Z,62.72
2022-09-24T08:54:45.381Z,62.17
2022-09-24T08:57:20.648Z,62.22
2022-09-24T08:59:53.012Z,62.99
2022-09-24T09:02:53.003Z,62.03
2022-09-24T09:05:55.917Z,61.43
2022-09-24T09:09:06.226Z,62.24
2022-09-24T09:11:38.012Z,61.83
2022-09-24T09:14:18.415Z,61.91
2022-09-24T09:16:57.396Z,63.15
2022-09-24T09:19:33.916Z,62.56
2022-09-24T09:22:28.145Z,61.73
2022-09-24T09:25:04.627Z,62.45
2022-09-24T09:27:33.075Z,61.05
2022-09-24T09:30:11.845Z,62.02
2022-09-24T09:33:35.528Z,62.10
2022-09-24T09:36:43.554Z,60.80
2022-09-24T09:39:37.417Z,61.47
2022-09-24T09:42:28.738Z,60.85
2022-09-24T09:44:56.890Z,60.01
2022-09-24T09:47:45.997Z,60.00
2022-09-24T09:50:32.383Z,60.04
2022-09-24T09:53:02.159Z,61.57
2022-09-24T09:55:37.645Z,61.46
2022-09-24T09:58:40.155Z,59.94
2022-09-24T10:01:19.555Z,59.60
2022-09-24T10:03:49.907Z,58.66
2022-09-24T10:06:28.465Z,59.09
2022-09-24T10:09:22.372Z,56.43
2022-09-24T10:11:50.427Z,56.50
2022-09-24T10:14:20.672Z,55.37
2022-09-24T10:16:55.256Z,54.73
2022-09-24T10:19:29.461Z,53.97
2022-09-24T10:21:58.747Z,53.83
2022-09-24T10:24:29.190Z,52.34
2022-09-24T10:26:57.613Z,52.69
2022-09-24T10:29:53.019Z,53.17
2022-09-24T10:32:24.949Z,52.12
2022-09-24T10:34:58.399Z,50.97
2022-09-24T10:37:27.757Z,50.45
2022-09-24T10:40:15.525Z,51.14
2022-09-24T10:42:43.799Z,50.42
2022-09-24T10:45:18.675Z,48.88
2022-09-24T10:48:08.827Z,48.70
2022-09-24T10:50:45.857Z,48.69
2022-09-24T10:53:25.165Z,47.79
2022-09-24T10:56:30.868Z,47.62
2022-09-24T10:59:36.169Z,47.29
2022-09-24T11:02:13.335Z,46.96
2022-09-24T11:04:58.735Z,46.22
2022-09-24T11:07:48.304Z,47.44
2022-09-24T11:10:42.747Z,44.42
2022-09-24T11:13:15.515Z,45.15
2022-09-24T11:15:55.438Z,46.16
2022-09-24T11:18:34.959Z,47.36
2022-09-24T11:21:39.249Z,46.79
2022-09-24T11:24:52.133Z,45.19
2022-09-24T11:27:46.696Z,45.82
2022-09-24T11:30:25.070Z,47.20
2022-09-24T11:33:06.306Z,46.94
2022-09-24T11:36:20.270Z,46.53
2022-09-24T11:39:26.629Z,45.44
2022-09-24T11:42:16.574Z,43.68
2022-09-24T11:45:11.231Z,43.65
2022-09-24T11:48:12.082Z,44.14
2022-09-24T11:50:58.141Z,43.78
2022-09-24T11:53:57.127Z,44.21
2022-09-24T11:56:43.410Z,44.24
2022-09-24T11:59:53.277Z,45.18
2022-09-24T12:02:50.405Z,45.33
2022-09-24T12:05:54.499Z,46.10
2022-09-24T12:08:44.368Z,43.63
2022-09-24T12:11:36.158Z,42.99
2022-09-24T12:14:25.577Z,44.86
2022-09-24T12:17:02.215Z,46.22
2022-09-24T12:19:55.397Z,44.49
2022-09-24T12:22:25.552Z,45.17
2022-09-24T12:24:59.273Z,44.42
2022-09-24T12:27:37.493Z,44.61
2022-09-24T12:30:33.227Z,44.69
2022-09-24T12:33:11.906Z,45.49
2022-09-24T12:35:58.112Z,47.22
2022-09-24T12:38:46.049Z,46.75
2022-09-24T12:41:29.104Z,45.38
2022-09-24T12:44:03.210Z,45.19
2022-09-24T12:46:58.189Z,45.73
2022-09-24T12:49:26.272Z,46.81
2022-09-24T12:52:00.656Z,47.41
2022-09-24T12:54:38.498Z,48.08
2022-09-24T12:57:21.340Z,47.26
2022-09-24T13:00:01.201Z,47.87
2022-09-24T13:02:43.241Z,47.25
2022-09-24T13:05:21.686Z,46.19
2022-09-24T13:08:24.777Z,46.24
2022-09-24T13:11:00.678Z,46.80
2022-09-24T13:13:33.247Z,47.15
2022-09-24T13:16:22.988Z,46.87
2022-09-24T13:18:58.711Z,44.61
2022-09-24T13:21:29.687Z,44.70
2022-09-24T13:23:58.587Z,45.65
2022-09-24T13:26:36.436Z,44.33
2022-09-24T13:29:24.563Z,43.50
2022-09-24T13:32:02.929Z,43.09
2022-09-24T13:34:32.431Z,42.39
2022-09-24T13:37:34.610Z,42.17
2022-09-24T13:40:18.110Z,41.98
2022-09-24T13:43:14.159Z,42.99
2022-09-24T13:45:45.394Z,43.24
2022-09-24T13:48:33.576Z,43.52
2022-09-24T13:51:04.798Z,42.55
2022-09-24T13:54:06.572Z,43.26
2022-09-24T13:56:34.811Z,42.88
2022-09-24T13:59:12.442Z,43.95
2022-09-24T14:01:43.355Z,44.28
2022-09-24T14:04:20.612Z,44.95
2022-09-24T14:06:56.405Z,43.52
2022-09-24T14:09:33.798Z,43.84
2022-09-24T14:12:15.320Z,44.25
2022-09-24T14:14:47.369Z,45.85
2022-09-24T14:17:16.049Z,45.64
2022-09-24T14:19:44.183Z,46.01
2022-09-24T14:22:21.821Z,45.97
2022-09-24T14:25:06.990Z,46.93
2022-09-24T14:27:41.971Z,47.07
2022-09-24T14:30:29.246Z,44.87
2022-09-24T14:33:06.393Z,44.62
2022-09-24T14:35:38.289Z,43.87
2022-09-24T14:38:18.005Z,43.13
2022-09-24T14:41:20.253Z,42.92
2022-09-24T14:43:59.157Z,42.81
2022-09-24T14:46:34.120Z,43.05
2022-09-24T14:49:32.699Z,42.85
2022-09-24T14:52:03.924Z,42.73
2022-09-24T14:54:40.327Z,42.86
2022-09-24T14:57:17.469Z,42.49
2022-09-24T14:59:47.043Z,42.60
2022-09-24T15:02:37.159Z,43.04
2022-09-24T15:05:08.351Z,43.81
2022-09-24T15:07:36.733Z,43.11
2022-09-24T15:10:06.299Z,43.23
2022-09-24T15:12:39.212Z,42.78
2022-09-24T15:15:22.482Z,43.16
2022-09-24T15:17:50.553Z,43.81
2022-09-24T15:20:18.654Z,45.00
2022-09-24T15:22:47.459Z,45.53
2022-09-24T15:25:15.962Z,45.42
2022-09-24T15:27:45.224Z,46.86
2022-09-24T15:30:21.283Z,47.93
2022-09-24T15:32:50.068Z,48.52
2022-09-24T15:35:18.195Z,49.48
2022-09-24T15:37:48.602Z,50.32
2022-09-24T15:40:25.506Z,51.19
2022-09-24T15:42:53.755Z,51.98
2022-09-24T15:45:24.634Z,52.63
2022-09-24T15:47:53.511Z,52.13
2022-09-24T15:50:23.822Z,52.07
2022-09-24T15:52:59.075Z,52.54
2022-09-24T15:55:27.763Z,53.26
2022-09-24T15:57:55.859Z,54.09
2022-09-24T16:00:26.369Z,55.05
2022-09-24T16:02:57.162Z,55.23
2022-09-24T16:05:26.084Z,56.46
2022-09-24T16:07:54.455Z,57.08
2022-09-24T16:10:22.590Z,57.31
2022-09-24T16:12:50.660Z,57.77
2022-09-24T16:15:18.939Z,57.53
2022-09-24T16:17:49.957Z,57.89
2022-09-24T16:20:18.139Z,57.97
2022-09-24T16:22:46.241Z,58.25
2022-09-24T16:25:14.447Z,58.65
2022-09-24T16:27:42.515Z,58.71
2022-09-24T16:30:11.243Z,58.77
2022-09-24T16:32:39.666Z,59.08
2022-09-24T16:35:11.069Z,59.15
2022-09-24T16:37:40.744Z,59.81
2022-09-24T16:40:10.145Z,60.14
2022-09-24T16:42:38.480Z,61.14
2022-09-24T16:45:07.772Z,61.67
2022-09-24T16:47:36.192Z,61.64
2022-09-24T16:50:05.282Z,61.57
2022-09-24T16:52:33.443Z,61.92
2022-09-24T16:55:01.628Z,62.85
2022-09-24T16:57:29.773Z,63.65
2022-09-24T16:59:57.883Z,63.98
2022-09-24T17:02:25.999Z,64.31
2022-09-24T17:04:59.319Z,63.94
2022-09-24T17:07:32.557Z,63.72
2022-09-24T17:10:15.993Z,64.98
2022-09-24T17:12:51.759Z,64.53
2022-09-24T17:15:20.913Z,64.93
2022-09-24T17:17:50.827Z,65.27
2022-09-24T17:20:19.857Z,65.31
2022-09-24T17:22:49.751Z,64.97
2022-09-24T17:25:17.932Z,65.21
2022-09-24T17:27:46.072Z,64.84
2022-09-24T17:30:16.029Z,65.64
2022-09-24T17:32:44.304Z,65.64
2022-09-24T17:35:13.558Z,65.85
2022-09-24T17:37:41.703Z,66.74
2022-09-24T17:40:11.051Z,66.40
2022-09-24T17:42:45.886Z,65.12
2022-09-24T17:45:14.056Z,65.16
2022-09-24T17:47:57.563Z,66.22
2022-09-24T17:50:25.658Z,66.68
2022-09-24T17:52:53.744Z,67.51
2022-09-24T17:55:21.836Z,68.35
2022-09-24T17:57:49.883Z,68.95
2022-09-24T18:00:18.102Z,69.18
2022-09-24T18:02:46.200Z,69.66
2022-09-24T18:05:14.355Z,70.07
2022-09-24T18:07:42.396Z,70.03
2022-09-24T18:10:10.481Z,70.06
2022-09-24T18:12:38.500Z,70.32
2022-09-24T18:15:07.354Z,69.99
2022-09-24T18:17:35.468Z,70.63
2022-09-24T18:20:03.920Z,71.15
2022-09-24T18:22:32.179Z,70.59
2022-09-24T18:25:01.754Z,70.35
2022-09-24T18:27:31.827Z,70.36
2022-09-24T18:30:03.577Z,70.45
2022-09-24T18:32:35.349Z,70.28
2022-09-24T18:35:03.759Z,70.23
2022-09-24T18:37:31.906Z,70.96
2022-09-24T18:39:59.923Z,71.34
2022-09-24T18:42:28.286Z,72.45
2022-09-24T18:44:56.353Z,73.68
2022-09-24T18:47:24.397Z,73.46
2022-09-24T18:49:53.033Z,72.99
2022-09-24T18:52:21.096Z,72.41
2022-09-24T18:54:50.231Z,71.79
2022-09-24T18:57:18.306Z,70.96
2022-09-24T18:59:48.524Z,70.42
2022-09-24T19:02:17.108Z,71.60
2022-09-24T19:04:45.371Z,72.92
2022-09-24T19:07:13.408Z,73.43
2022-09-24T19:09:41.606Z,73.19
2022-09-24T19:12:10.089Z,72.66
2022-09-24T19:14:38.155Z,72.17
2022-09-24T19:17:07.209Z,72.37
2022-09-24T19:19:35.271Z,72.21
2022-09-24T19:22:03.371Z,72.33
2022-09-24T19:24:31.546Z,72.57
2022-09-24T19:26:59.647Z,73.54
2022-09-24T19:29:28.293Z,74.05
2022-09-24T19:31:56.356Z,74.50
2022-09-24T19:34:24.475Z,74.75
2022-09-24T19:36:54.952Z,74.85
2022-09-24T19:39:22.983Z,74.99
2022-09-24T19:41:52.957Z,75.24
2022-09-24T19:44:21.164Z,75.86
2022-09-24T19:46:49.271Z,76.27
2022-09-24T19:49:17.445Z,76.25
2022-09-24T19:51:45.531Z,76.31
2022-09-24T19:54:13.757Z,76.12
2022-09-24T19:56:42.135Z,75.13
2022-09-24T19:59:10.884Z,74.85
2022-09-24T20:01:39.205Z,74.97
2022-09-24T20:04:07.976Z,75.19
2022-09-24T20:06:38.680Z,75.20
2022-09-24T20:09:07.586Z,75.01
2022-09-24T20:11:36.303Z,75.33
2022-09-24T20:14:06.203Z,75.84
2022-09-24T20:16:34.924Z,76.07
2022-09-24T20:19:04.207Z,75.97
2022-09-24T20:21:34.736Z,75.60
2022-09-24T20:24:05.664Z,75.57
2022-09-24T20:26:53.242Z,75.52
2022-09-24T20:29:23.250Z,75.93
2022-09-24T20:31:55.707Z,76.17
2022-09-24T20:34:33.271Z,75.69
2022-09-24T20:37:04.351Z,75.57
2022-09-24T20:39:32.953Z,75.53
2022-09-24T20:42:06.183Z,75.82
2022-09-24T20:44:35.650Z,76.65
2022-09-24T20:47:03.718Z,75.56
2022-09-24T20:49:33.379Z,75.45
2022-09-24T20:52:03.221Z,76.34
2022-09-24T20:54:33.588Z,77.00
2022-09-24T20:57:01.713Z,76.99
2022-09-24T20:59:30.820Z,76.18
2022-09-24T21:01:59.041Z,76.67
2022-09-24T21:04:27.258Z,77.99
2022-09-24T21:06:55.374Z,78.44
2022-09-24T21:09:23.799Z,78.25
2022-09-24T21:11:54.384Z,78.42
2022-09-24T21:14:22.840Z,78.82
2022-09-24T21:16:51.023Z,79.67
2022-09-24T21:19:19.264Z,79.61
2022-09-24T21:21:47.551Z,78.74
2022-09-24T21:24:15.981Z,78.11
2022-09-24T21:26:45.358Z,78.22
2022-09-24T21:29:17.561Z,78.46
2022-09-24T21:31:47.773Z,78.17
2022-09-24T21:34:20.966Z,78.10
2022-09-24T21:36:49.517Z,77.77
2022-09-24T21:39:26.811Z,77.33
2022-09-24T21:41:59.269Z,76.84
2022-09-24T21:44:30.988Z,76.47
2022-09-24T21:46:59.386Z,76.10
2022-09-24T21:49:27.968Z,76.46
2022-09-24T21:51:57.140Z,75.95
2022-09-24T21:54:25.265Z,75.71
2022-09-24T21:56:54.425Z,76.31
2022-09-24T21:59:41.329Z,77.52
2022-09-24T22:02:10.258Z,77.48
2022-09-24T22:04:39.099Z,77.21
2022-09-24T22:07:07.854Z,77.14
2022-09-24T22:09:36.845Z,77.02
2022-09-24T22:12:06.027Z,77.34
2022-09-24T22:14:34.886Z,77.39
2022-09-24T22:17:03.992Z,78.14
2022-09-24T22:19:32.307Z,78.67
2022-09-24T22:22:00.392Z,78.04
2022-09-24T22:24:28.531Z,77.81
2022-09-24T22:26:57.137Z,77.48
2022-09-24T22:29:25.344Z,77.28
2022-09-24T22:31:53.416Z,77.23
2022-09-24T22:34:40.431Z,76.81
2022-09-24T22:37:08.544Z,76.84
2022-09-24T22:39:36.610Z,76.56
2022-09-24T22:42:06.109Z,76.82
2022-09-24T22:44:34.204Z,76.84
2022-09-24T22:47:02.282Z,78.00
2022-09-24T22:49:32.664Z,78.98
2022-09-24T22:52:01.079Z,79.73
2022-09-24T22:54:30.475Z,79.85
2022-09-24T22:56:58.616Z,79.81
2022-09-24T22:59:26.638Z,80.00
2022-09-24T23:01:54.776Z,80.11
2022-09-24T23:04:23.760Z,80.41
2022-09-24T23:06:52.031Z,80.00
2022-09-24T23:09:20.694Z,79.62
2022-09-24T23:11:48.772Z,79.53
2022-09-24T23:14:17.106Z,79.28
2022-09-24T23:16:46.380Z,79.22
2022-09-24T23:19:18.951Z,79.42
2022-09-24T23:21:47.733Z,79.73
2022-09-24T23:24:21.941Z,80.27
2022-09-24T23:26:51.155Z,80.23
2022-09-24T23:29:19.194Z,81.20
2022-09-24T23:31:47.230Z,82.14
2022-09-24T23:34:15.295Z,83.15
2022-09-24T23:36:45.220Z,83.39
2022-09-24T23:39:14.760Z,82.63
2022-09-24T23:41:42.876Z,83.34
2022-09-24T23:44:11.098Z,83.59
2022-09-24T23:46:39.291Z,83.14
2022-09-24T23:49:07.328Z,83.22
2022-09-24T23:51:35.497Z,83.24
2022-09-24T23:54:04.059Z,83.32
2022-09-24T23:56:32.463Z,84.35
2022-09-24T23:59:00.531Z,84.85
